This is the latest recevied weather packets stored in our database for station/object KC9ZAR-13. If no packets are shown the sender has not sent any weather packets the latest 10 day(s).
| Time | Temp. | Humidity | Pressure | Rain* | Wind** | Luminosity | Snow |
|---|---|---|---|---|---|---|---|
| 1777744806 | 13.33° C | 62% | 1016.7 hPa | 0 mm | - | 0 W/m² | - |
| 1777742105 | 11.67° C | 65% | 1017.5 hPa | 0 mm | - | 0 W/m² | - |
| 1777740905 | 11.11° C | 66% | 1017.5 hPa | 0 mm | - | 0 W/m² | - |
| 1777740005 | 10.56° C | 68% | 1017.6 hPa | 0 mm | - | 0 W/m² | - |
| 1777736705 | 8.89° C | 74% | 1017.7 hPa | 0 mm | - | 0 W/m² | - |
| 1777734905 | 8.89° C | 76% | 1017.6 hPa | 0 mm | - | 0 W/m² | - |
| 1777734605 | 8.89° C | 77% | 1017.6 hPa | 0 mm | - | 0 W/m² | - |
| 1777731605 | 8.33° C | 81% | 1017.3 hPa | 0 mm | - | 0 W/m² | - |
| 1777728005 | 7.78° C | 80% | 1016.8 hPa | 0 mm | - | 0 W/m² | - |
| 1777725605 | 7.78° C | 83% | 1016.6 hPa | 0 mm | - | 0 W/m² | - |
| 1777724705 | 7.78° C | 83% | 1016.6 hPa | 0 mm | - | 0 W/m² | - |
| 1777724405 | 7.78° C | 83% | 1016.5 hPa | 0 mm | - | 0 W/m² | - |
| 1777724105 | 7.78° C | 83% | 1016.3 hPa | 0 mm | - | 0 W/m² | - |
| 1777723506 | 7.78° C | 82% | 1016.2 hPa | 0 mm | - | 0 W/m² | - |
| 1777722906 | 7.78° C | 83% | 1015.9 hPa | 0 mm | - | 0 W/m² | - |
| 1777722305 | 7.78° C | 82% | 1015.9 hPa | 0 mm | - | 0 W/m² | - |
| 1777721405 | 7.78° C | 82% | 1016.1 hPa | 0 mm | - | 0 W/m² | - |
| 1777719605 | 7.78° C | 82% | 1015.6 hPa | 0 mm | - | 0 W/m² | - |
| 1777719304 | 7.78° C | 82% | 1015.6 hPa | 0 mm | - | 0 W/m² | - |
| 1777718405 | 7.78° C | 83% | 1015.5 hPa | 0 mm | - | 0 W/m² | - |
| 1777718105 | 7.78° C | 83% | 1015.5 hPa | 0 mm | - | 0 W/m² | - |
| 1777717205 | 7.78° C | 83% | 1015.4 hPa | 0 mm | - | 0 W/m² | - |
| 1777716605 | 7.78° C | 83% | 1015.4 hPa | 0 mm | - | 0 W/m² | - |
| 1777715405 | 7.78° C | 83% | 1015.4 hPa | 0 mm | - | 0 W/m² | - |
| 1777714505 | 7.78° C | 84% | 1015.3 hPa | 0 mm | - | 0 W/m² | - |
* Rain latest hour (hover to see other rain measurements)
** Current wind speed in m/s (hover to see current wind gust speed)